Time;durP1;ratioP1;P1;durP2;ratioP2;P2;SDS_P1;SDS_P2;PMS_P1;PMS_P2;Temp;Humidity;BMP_temperature;BMP_pressure;BME280_temperature;BME280_humidity;BME280_pressure;Samples;Min_cycle;Max_cycle;Signal;HPM_P1;HPM_P2
2021/03/06 00:01:34;;;;;;;64.35;31.27;;;;;;;;;;5056020;28;20032;-62
2021/03/06 00:03:59;;;;;;;67.72;30.95;;;;;;;;;;5056103;28;20017;-63
2021/03/06 00:06:25;;;;;;;62.55;30.27;;;;;;;;;;5056112;28;20037;-63
2021/03/06 00:08:50;;;;;;;66.72;30.75;;;;;;;;;;5056052;28;20017;-63
2021/03/06 00:11:16;;;;;;;61.35;29.05;;;;;;;;;;5055979;28;20467;-63
2021/03/06 00:13:41;;;;;;;62.03;29.25;;;;;;;;;;5055962;28;20021;-63
2021/03/06 00:16:07;;;;;;;59.38;29.75;;;;;;;;;;5055983;28;20033;-63
2021/03/06 00:18:32;;;;;;;58.80;29.13;;;;;;;;;;5055893;28;20071;-63
2021/03/06 00:20:58;;;;;;;69.32;34.75;;;;;;;;;;5055697;28;20022;-63
2021/03/06 00:23:27;;;;;;;72.53;34.95;;;;;;;;;;5055590;28;20017;-63
2021/03/06 00:25:53;;;;;;;69.03;35.22;;;;;;;;;;5055712;28;20036;-63
2021/03/06 00:28:18;;;;;;;70.20;34.53;;;;;;;;;;5037825;28;20460;-63
2021/03/06 00:30:44;;;;;;;58.80;29.80;;;;;;;;;;5055820;28;20036;-63
2021/03/06 00:33:09;;;;;;;59.65;27.55;;;;;;;;;;5055643;28;20017;-63
2021/03/06 00:35:35;;;;;;;53.33;24.50;;;;;;;;;;5055529;28;20037;-63
2021/03/06 00:38:00;;;;;;;55.83;26.17;;;;;;;;;;5055475;28;20426;-63
2021/03/06 00:40:26;;;;;;;56.53;25.77;;;;;;;;;;5055335;28;20364;-64
2021/03/06 00:42:51;;;;;;;55.67;25.73;;;;;;;;;;5055514;28;20025;-64
2021/03/06 00:45:18;;;;;;;58.35;26.70;;;;;;;;;;5054084;28;20048;-64
2021/03/06 00:47:43;;;;;;;53.55;26.35;;;;;;;;;;5055071;28;20013;-63
2021/03/06 00:50:19;;;;;;;54.55;27.45;;;;;;;;;;5037553;28;20082;-64
2021/03/06 00:52:45;;;;;;;51.22;25.17;;;;;;;;;;5055033;28;20056;-64
2021/03/06 00:55:13;;;;;;;50.63;25.75;;;;;;;;;;5021151;28;20248;-64
2021/03/06 00:57:40;;;;;;;53.00;26.23;;;;;;;;;;5037281;28;20502;-63
2021/03/06 01:00:08;;;;;;;49.50;25.17;;;;;;;;;;5053761;28;20491;-63
2021/03/06 01:02:34;;;;;;;48.25;24.35;;;;;;;;;;5053757;28;20028;-63
2021/03/06 01:05:03;;;;;;;45.85;22.75;;;;;;;;;;5053125;28;20021;-63
2021/03/06 01:07:29;;;;;;;45.42;23.30;;;;;;;;;;5054825;28;20087;-63
2021/03/06 01:09:54;;;;;;;48.67;24.48;;;;;;;;;;5054975;28;20025;-63
2021/03/06 01:12:20;;;;;;;46.20;22.27;;;;;;;;;;5054853;28;20021;-63
2021/03/06 01:14:45;;;;;;;47.97;23.65;;;;;;;;;;5053472;28;20021;-63
2021/03/06 01:17:11;;;;;;;49.15;25.10;;;;;;;;;;5054704;28;20029;-63
2021/03/06 01:19:36;;;;;;;49.38;24.60;;;;;;;;;;5054620;28;20391;-63
2021/03/06 01:22:01;;;;;;;56.58;27.48;;;;;;;;;;5054756;28;20479;-63
2021/03/06 01:24:27;;;;;;;55.13;27.08;;;;;;;;;;5054668;28;20059;-63
2021/03/06 01:26:52;;;;;;;51.55;25.02;;;;;;;;;;5054638;28;20040;-63
2021/03/06 01:29:18;;;;;;;57.65;26.40;;;;;;;;;;5054586;28;20442;-63
2021/03/06 01:31:43;;;;;;;60.22;27.30;;;;;;;;;;5054535;28;20021;-63
2021/03/06 01:34:09;;;;;;;51.30;24.25;;;;;;;;;;5054389;28;20432;-63
2021/03/06 01:36:34;;;;;;;51.50;24.23;;;;;;;;;;5054446;28;20037;-63
2021/03/06 01:39:00;;;;;;;47.30;24.60;;;;;;;;;;5054212;28;20028;-63
2021/03/06 01:41:25;;;;;;;51.72;24.65;;;;;;;;;;5054283;28;20021;-63
2021/03/06 01:43:52;;;;;;;50.47;24.15;;;;;;;;;;5054207;28;20017;-63
2021/03/06 01:46:17;;;;;;;49.95;24.35;;;;;;;;;;5054121;28;20052;-63
2021/03/06 01:48:42;;;;;;;49.22;24.55;;;;;;;;;;5053508;28;20618;-63
2021/03/06 01:51:08;;;;;;;54.45;25.83;;;;;;;;;;5054065;28;20041;-59
2021/03/06 01:53:33;;;;;;;50.45;24.67;;;;;;;;;;5053918;28;20021;-59
2021/03/06 01:55:59;;;;;;;50.22;24.63;;;;;;;;;;5052782;28;20029;-59
2021/03/06 01:58:24;;;;;;;51.45;24.20;;;;;;;;;;5053938;28;20013;-58
2021/03/06 02:00:50;;;;;;;47.70;23.52;;;;;;;;;;5053806;28;20112;-59
2021/03/06 02:03:15;;;;;;;52.25;24.60;;;;;;;;;;5053868;28;20013;-59
2021/03/06 02:05:42;;;;;;;50.72;23.88;;;;;;;;;;5053888;28;20383;-59
2021/03/06 02:08:07;;;;;;;62.30;28.20;;;;;;;;;;5053709;28;20025;-59
2021/03/06 02:10:36;;;;;;;59.40;27.80;;;;;;;;;;5053663;28;20040;-58
2021/03/06 02:13:17;;;;;;;63.10;29.00;;;;;;;;;;5053729;28;20020;-59
2021/03/06 02:15:43;;;;;;;64.82;28.63;;;;;;;;;;5053420;28;20106;-59
2021/03/06 02:18:18;;;;;;;60.13;28.27;;;;;;;;;;5052852;28;20052;-59
2021/03/06 02:20:51;;;;;;;62.97;28.92;;;;;;;;;;5053525;28;20472;-59
2021/03/06 02:23:35;;;;;;;55.47;26.20;;;;;;;;;;5035665;28;20025;-59
2021/03/06 02:26:10;;;;;;;48.30;23.85;;;;;;;;;;5053679;28;20032;-59
2021/03/06 02:28:54;;;;;;;52.90;25.02;;;;;;;;;;5053439;28;20025;-59
2021/03/06 02:31:20;;;;;;;45.00;21.52;;;;;;;;;;5053391;28;20112;-58
2021/03/06 02:34:00;;;;;;;49.95;23.05;;;;;;;;;;5053399;28;20112;-58
2021/03/06 02:36:25;;;;;;;46.03;21.80;;;;;;;;;;5053546;28;20045;-58
2021/03/06 02:38:54;;;;;;;42.10;20.92;;;;;;;;;;5053302;28;20184;-58
2021/03/06 02:41:21;;;;;;;39.53;20.17;;;;;;;;;;5053128;28;20029;-58
2021/03/06 02:43:47;;;;;;;42.30;20.60;;;;;;;;;;5052617;28;20019;-58
2021/03/06 02:46:12;;;;;;;46.17;21.65;;;;;;;;;;5053187;28;20086;-58
2021/03/06 02:48:38;;;;;;;46.63;21.73;;;;;;;;;;5052743;28;20037;-58
2021/03/06 02:51:03;;;;;;;44.38;22.40;;;;;;;;;;5035481;28;20068;-58
2021/03/06 02:53:29;;;;;;;46.22;22.33;;;;;;;;;;5053184;28;20106;-58
2021/03/06 02:55:54;;;;;;;44.20;21.77;;;;;;;;;;5051792;28;20033;-58
2021/03/06 02:58:30;;;;;;;51.97;22.75;;;;;;;;;;5053097;28;20427;-58
2021/03/06 03:01:03;;;;;;;32.97;14.55;;;;;;;;;;5053052;28;20033;-58
2021/03/06 03:03:47;;;;;;;27.98;14.10;;;;;;;;;;5053063;28;20535;-58
2021/03/06 03:06:19;;;;;;;20.70;11.52;;;;;;;;;;5052984;28;20025;-58
2021/03/06 03:08:44;;;;;;;22.20;12.07;;;;;;;;;;5052971;28;20029;-58
2021/03/06 03:11:13;;;;;;;21.77;12.75;;;;;;;;;;5052903;28;20410;-58
2021/03/06 03:13:42;;;;;;;21.13;13.05;;;;;;;;;;5052995;28;20033;-58
2021/03/06 03:16:14;;;;;;;23.38;11.98;;;;;;;;;;5052968;28;20025;-58
2021/03/06 03:18:58;;;;;;;18.50;11.02;;;;;;;;;;5052939;28;20040;-58
2021/03/06 03:21:25;;;;;;;26.38;12.70;;;;;;;;;;5052879;28;20043;-58
2021/03/06 03:24:00;;;;;;;29.30;13.10;;;;;;;;;;5052857;28;20009;-58
2021/03/06 03:26:27;;;;;;;21.92;11.75;;;;;;;;;;5052812;28;20029;-58
2021/03/06 03:28:54;;;;;;;18.50;10.93;;;;;;;;;;5037059;28;20372;-58
2021/03/06 03:31:22;;;;;;;20.63;11.75;;;;;;;;;;5056650;28;20432;-58
2021/03/06 03:33:47;;;;;;;21.65;11.40;;;;;;;;;;5038915;28;20387;-58
2021/03/06 03:36:13;;;;;;;18.45;11.35;;;;;;;;;;5056717;28;20116;-59
2021/03/06 03:38:39;;;;;;;20.58;11.18;;;;;;;;;;5056050;28;20024;-58
2021/03/06 03:41:08;;;;;;;26.73;14.45;;;;;;;;;;5056343;28;20384;-58
2021/03/06 03:43:34;;;;;;;26.55;13.70;;;;;;;;;;5056335;28;20048;-58
2021/03/06 03:46:02;;;;;;;33.83;17.35;;;;;;;;;;5056527;28;20055;-58
2021/03/06 03:48:27;;;;;;;35.05;18.60;;;;;;;;;;5056009;28;20033;-59
2021/03/06 03:50:52;;;;;;;33.65;18.88;;;;;;;;;;5056390;28;20117;-58
2021/03/06 03:53:18;;;;;;;34.90;17.73;;;;;;;;;;5056311;28;20095;-58
2021/03/06 03:55:44;;;;;;;33.90;16.90;;;;;;;;;;5056233;28;20041;-58
2021/03/06 03:58:09;;;;;;;25.92;13.68;;;;;;;;;;5056334;28;20070;-58
2021/03/06 04:00:35;;;;;;;28.38;14.80;;;;;;;;;;5056155;28;20021;-58
2021/03/06 04:03:04;;;;;;;31.65;14.95;;;;;;;;;;5056196;28;20382;-58
2021/03/06 04:05:30;;;;;;;22.50;12.60;;;;;;;;;;5056203;28;20115;-58
2021/03/06 04:07:56;;;;;;;23.13;12.93;;;;;;;;;;5056058;28;20048;-58
2021/03/06 04:10:22;;;;;;;21.15;11.50;;;;;;;;;;5056187;28;20036;-58
2021/03/06 04:12:48;;;;;;;27.33;13.98;;;;;;;;;;5056172;28;20063;-58
2021/03/06 04:15:15;;;;;;;26.13;14.07;;;;;;;;;;5055995;28;20033;-59
2021/03/06 04:17:41;;;;;;;23.90;13.65;;;;;;;;;;5055973;28;20032;-58
2021/03/06 04:20:07;;;;;;;28.40;13.90;;;;;;;;;;5055936;28;20021;-58
2021/03/06 04:22:33;;;;;;;25.45;13.43;;;;;;;;;;5055999;28;20024;-58
2021/03/06 04:24:59;;;;;;;25.15;14.10;;;;;;;;;;5055800;28;20025;-58
2021/03/06 04:27:24;;;;;;;25.08;14.80;;;;;;;;;;5055795;28;20013;-58
2021/03/06 04:29:50;;;;;;;25.60;14.05;;;;;;;;;;5055684;28;20041;-58
2021/03/06 04:32:21;;;;;;;24.77;15.18;;;;;;;;;;5056021;28;20052;-58
2021/03/06 04:34:46;;;;;;;50.20;24.63;;;;;;;;;;5055689;28;20432;-59
2021/03/06 04:37:12;;;;;;;93.00;46.75;;;;;;;;;;5055591;28;20100;-58
2021/03/06 04:39:37;;;;;;;29.95;17.10;;;;;;;;;;5054517;28;20025;-58
2021/03/06 04:42:03;;;;;;;88.82;49.42;;;;;;;;;;5055471;28;20035;-58
2021/03/06 04:44:28;;;;;;;56.22;29.27;;;;;;;;;;5054275;28;20467;-58
2021/03/06 04:46:55;;;;;;;207.20;80.60;;;;;;;;;;5055365;28;20021;-58
2021/03/06 04:49:21;;;;;;;64.82;36.65;;;;;;;;;;5053871;28;20037;-58
2021/03/06 04:51:46;;;;;;;61.28;31.58;;;;;;;;;;5055476;28;20036;-58
2021/03/06 04:54:12;;;;;;;42.08;24.45;;;;;;;;;;5055421;28;20032;-58
2021/03/06 04:56:37;;;;;;;35.13;19.95;;;;;;;;;;5054171;28;20048;-58
2021/03/06 04:59:03;;;;;;;30.98;17.73;;;;;;;;;;5055032;28;20041;-58
2021/03/06 05:01:28;;;;;;;37.03;20.45;;;;;;;;;;5055081;28;20013;-58
2021/03/06 05:03:54;;;;;;;36.22;19.67;;;;;;;;;;5055129;28;20032;-58
2021/03/06 05:06:19;;;;;;;30.08;17.30;;;;;;;;;;5055096;28;20058;-58
2021/03/06 05:08:45;;;;;;;29.80;16.27;;;;;;;;;;5054994;28;20124;-58
2021/03/06 05:11:10;;;;;;;28.83;17.13;;;;;;;;;;5055006;28;20017;-58
2021/03/06 05:13:36;;;;;;;30.75;17.73;;;;;;;;;;5054917;28;20131;-58
2021/03/06 05:16:02;;;;;;;34.58;18.77;;;;;;;;;;5054705;28;20020;-58
2021/03/06 05:18:30;;;;;;;33.90;17.95;;;;;;;;;;5054964;28;20395;-58
2021/03/06 05:20:55;;;;;;;35.55;19.15;;;;;;;;;;5054653;28;20017;-58
2021/03/06 05:23:21;;;;;;;86.93;31.63;;;;;;;;;;5054662;28;20055;-58
2021/03/06 05:25:46;;;;;;;40.42;18.92;;;;;;;;;;5054669;28;20387;-58
2021/03/06 05:28:12;;;;;;;32.25;16.27;;;;;;;;;;5054511;28;20112;-58
2021/03/06 05:30:38;;;;;;;63.40;24.27;;;;;;;;;;5054504;28;20025;-58
2021/03/06 05:33:03;;;;;;;47.85;21.20;;;;;;;;;;5036569;28;20033;-58
2021/03/06 05:35:29;;;;;;;35.28;17.60;;;;;;;;;;5054452;28;20025;-58
2021/03/06 05:37:54;;;;;;;36.28;18.10;;;;;;;;;;5053342;28;20033;-58
2021/03/06 05:40:21;;;;;;;48.72;23.25;;;;;;;;;;5052980;28;20047;-58
2021/03/06 05:42:47;;;;;;;65.22;28.42;;;;;;;;;;5053771;28;20449;-58
2021/03/06 05:45:12;;;;;;;71.10;30.40;;;;;;;;;;5052835;28;20099;-58
2021/03/06 05:47:38;;;;;;;58.53;29.13;;;;;;;;;;5034127;28;20031;-58
2021/03/06 05:50:07;;;;;;;73.65;39.28;;;;;;;;;;5053470;28;20036;-58
2021/03/06 05:52:33;;;;;;;51.72;25.80;;;;;;;;;;5053588;28;20381;-58
2021/03/06 05:54:59;;;;;;;68.53;37.80;;;;;;;;;;5054048;28;20017;-58
2021/03/06 05:57:24;;;;;;;62.10;31.08;;;;;;;;;;5054104;28;20471;-58
2021/03/06 05:59:51;;;;;;;56.30;30.13;;;;;;;;;;5053894;28;20039;-58
2021/03/06 06:02:17;;;;;;;85.07;44.17;;;;;;;;;;5053984;28;20055;-58
2021/03/06 06:04:44;;;;;;;115.72;56.92;;;;;;;;;;5052629;28;20044;-58
2021/03/06 06:07:09;;;;;;;127.38;63.60;;;;;;;;;;5053756;28;20483;-58
2021/03/06 06:09:35;;;;;;;97.70;50.15;;;;;;;;;;5053997;28;20059;-58
2021/03/06 06:12:04;;;;;;;88.72;45.60;;;;;;;;;;5053934;28;20025;-58
2021/03/06 06:14:29;;;;;;;83.32;42.92;;;;;;;;;;5053643;28;20467;-58
2021/03/06 06:16:55;;;;;;;80.28;42.88;;;;;;;;;;5053717;28;20047;-58
2021/03/06 06:19:20;;;;;;;74.35;41.50;;;;;;;;;;5052372;28;20463;-58
2021/03/06 06:21:47;;;;;;;83.72;41.53;;;;;;;;;;5052420;28;20029;-58
2021/03/06 06:24:13;;;;;;;85.72;42.80;;;;;;;;;;5053594;28;20012;-58
2021/03/06 06:26:39;;;;;;;152.00;74.30;;;;;;;;;;5053090;28;20112;-58
2021/03/06 06:29:05;;;;;;;147.18;70.07;;;;;;;;;;5053418;28;20078;-58
2021/03/06 06:31:31;;;;;;;132.40;66.43;;;;;;;;;;5053343;28;20391;-58
2021/03/06 06:33:56;;;;;;;108.25;56.20;;;;;;;;;;5053621;28;20021;-58
2021/03/06 06:36:34;;;;;;;162.40;83.03;;;;;;;;;;5053575;28;20123;-58
2021/03/06 06:39:00;;;;;;;163.50;86.20;;;;;;;;;;5053385;28;20029;-58
2021/03/06 06:41:45;;;;;;;148.68;77.72;;;;;;;;;;5053417;28;20021;-58
2021/03/06 06:44:11;;;;;;;157.57;80.28;;;;;;;;;;5053243;28;20056;-58
2021/03/06 06:46:36;;;;;;;143.38;76.00;;;;;;;;;;5053204;28;20059;-58
2021/03/06 06:49:02;;;;;;;110.78;57.78;;;;;;;;;;5052957;28;20068;-58
2021/03/06 06:51:27;;;;;;;76.85;38.90;;;;;;;;;;5051980;28;20029;-58
2021/03/06 06:54:13;;;;;;;63.03;36.92;;;;;;;;;;5053074;28;20664;-58
2021/03/06 06:56:40;;;;;;;54.28;28.55;;;;;;;;;;5052971;28;20045;-58
2021/03/06 06:59:08;;;;;;;31.63;18.65;;;;;;;;;;5053330;28;20025;-58
2021/03/06 07:01:35;;;;;;;26.65;16.65;;;;;;;;;;5053170;28;20124;-58
2021/03/06 07:04:08;;;;;;;30.65;16.83;;;;;;;;;;5052621;28;20364;-58
2021/03/06 07:06:34;;;;;;;27.42;15.27;;;;;;;;;;5051746;28;20402;-58
2021/03/06 07:09:14;;;;;;;30.55;16.08;;;;;;;;;;5053011;28;20025;-58
2021/03/06 07:11:41;;;;;;;29.77;16.80;;;;;;;;;;5053090;28;20017;-58
2021/03/06 07:14:06;;;;;;;30.13;16.35;;;;;;;;;;5052958;28;20463;-58
2021/03/06 07:16:52;;;;;;;27.85;15.63;;;;;;;;;;5052930;28;20031;-58
2021/03/06 07:19:17;;;;;;;28.80;15.75;;;;;;;;;;5038710;28;20399;-58
2021/03/06 07:21:49;;;;;;;27.13;15.25;;;;;;;;;;5052571;28;20104;-58
2021/03/06 07:24:15;;;;;;;28.13;14.77;;;;;;;;;;5052968;28;20033;-58
2021/03/06 07:26:40;;;;;;;27.35;14.35;;;;;;;;;;5051895;28;20020;-58
2021/03/06 07:29:06;;;;;;;26.60;14.20;;;;;;;;;;5052868;28;20028;-58
2021/03/06 07:31:33;;;;;;;29.25;15.93;;;;;;;;;;5052898;28;20070;-57
2021/03/06 07:33:59;;;;;;;33.97;17.38;;;;;;;;;;5052744;28;20033;-58
2021/03/06 07:36:25;;;;;;;31.13;16.30;;;;;;;;;;5052674;28;20013;-58
2021/03/06 07:38:51;;;;;;;29.50;15.13;;;;;;;;;;5052859;28;20036;-58
2021/03/06 07:41:20;;;;;;;24.30;13.45;;;;;;;;;;5052607;28;20014;-58
2021/03/06 07:43:47;;;;;;;23.88;13.30;;;;;;;;;;5052733;28;20029;-58
2021/03/06 07:46:15;;;;;;;23.00;12.63;;;;;;;;;;5035040;28;20048;-58
2021/03/06 07:48:48;;;;;;;22.58;11.82;;;;;;;;;;5052429;28;20045;-58
2021/03/06 07:51:14;;;;;;;21.58;13.60;;;;;;;;;;5052806;28;20398;-58
2021/03/06 07:53:43;;;;;;;21.60;12.27;;;;;;;;;;5052581;28;20071;-58
2021/03/06 07:56:09;;;;;;;22.33;12.63;;;;;;;;;;5052519;28;20086;-58
2021/03/06 07:58:47;;;;;;;25.33;14.73;;;;;;;;;;5052480;28;20024;-58
2021/03/06 08:01:32;;;;;;;22.08;12.60;;;;;;;;;;5052563;28;20033;-58
2021/03/06 08:03:59;;;;;;;19.13;11.25;;;;;;;;;;5052544;28;20027;-58
2021/03/06 08:06:25;;;;;;;21.30;12.10;;;;;;;;;;5052566;28;20403;-58
2021/03/06 08:08:50;;;;;;;19.15;11.63;;;;;;;;;;5051108;28;20025;-58
2021/03/06 08:11:19;;;;;;;21.60;12.35;;;;;;;;;;5052399;28;20467;-57
2021/03/06 08:13:52;;;;;;;20.10;11.30;;;;;;;;;;5052382;28;20029;-58
2021/03/06 08:16:24;;;;;;;16.52;9.93;;;;;;;;;;5053455;28;20032;-58
2021/03/06 08:18:55;;;;;;;22.63;11.32;;;;;;;;;;5055986;28;20036;-59
2021/03/06 08:21:32;;;;;;;17.60;9.75;;;;;;;;;;5055878;28;20032;-58
2021/03/06 08:24:13;;;;;;;19.15;10.70;;;;;;;;;;5055920;28;20031;-58
2021/03/06 08:26:40;;;;;;;16.63;10.18;;;;;;;;;;5054596;28;20021;-57
2021/03/06 08:31:55;;;;;;;18.25;10.50;;;;;;;;;;5054588;28;20037;-58
2021/03/06 08:34:37;;;;;;;18.90;10.48;;;;;;;;;;5054589;28;20025;-58
2021/03/06 08:37:15;;;;;;;19.23;10.65;;;;;;;;;;5055630;28;20028;-58
2021/03/06 08:40:04;;;;;;;16.45;9.93;;;;;;;;;;5055265;28;20098;-57
2021/03/06 08:42:31;;;;;;;13.27;8.27;;;;;;;;;;5055516;28;20094;-58
2021/03/06 08:45:00;;;;;;;15.00;8.38;;;;;;;;;;5055438;28;20545;-58
2021/03/06 08:47:27;;;;;;;15.73;9.43;;;;;;;;;;5055337;28;20036;-58
2021/03/06 08:49:55;;;;;;;19.23;9.95;;;;;;;;;;5037535;28;20045;-58
2021/03/06 08:52:21;;;;;;;13.32;8.30;;;;;;;;;;5055280;28;20021;-57
2021/03/06 08:54:46;;;;;;;21.80;10.35;;;;;;;;;;5055338;28;20374;-58
2021/03/06 08:57:31;;;;;;;18.17;9.23;;;;;;;;;;5037600;28;20087;-57
2021/03/06 09:00:08;;;;;;;18.23;9.02;;;;;;;;;;5055100;28;20036;-58
2021/03/06 09:02:35;;;;;;;18.65;9.23;;;;;;;;;;5055118;28;20029;-58
2021/03/06 09:05:02;;;;;;;14.00;8.15;;;;;;;;;;5055008;28;20017;-58
2021/03/06 09:07:28;;;;;;;18.00;9.43;;;;;;;;;;5054943;28;20029;-57
2021/03/06 09:09:54;;;;;;;20.75;9.63;;;;;;;;;;5036826;28;20028;-58
2021/03/06 09:12:20;;;;;;;17.88;10.02;;;;;;;;;;5054982;28;20063;-58
2021/03/06 09:14:45;;;;;;;21.95;10.10;;;;;;;;;;5054808;28;20471;-57
2021/03/06 09:17:14;;;;;;;25.70;11.45;;;;;;;;;;5054762;28;20036;-58
2021/03/06 09:19:41;;;;;;;26.45;10.98;;;;;;;;;;5054798;28;20375;-58
2021/03/06 09:22:08;;;;;;;18.17;9.70;;;;;;;;;;5051982;28;20033;-58
2021/03/06 09:24:47;;;;;;;19.17;10.80;;;;;;;;;;5054671;28;20476;-58
2021/03/06 09:27:12;;;;;;;18.58;8.85;;;;;;;;;;5054207;28;20156;-57
2021/03/06 09:29:38;;;;;;;14.75;8.57;;;;;;;;;;5054564;28;20056;-58
2021/03/06 09:32:04;;;;;;;19.00;10.45;;;;;;;;;;5054632;28;20402;-57
2021/03/06 09:34:30;;;;;;;17.63;9.65;;;;;;;;;;5054514;28;20044;-57
2021/03/06 09:36:55;;;;;;;21.05;9.98;;;;;;;;;;5054394;28;20060;-57
2021/03/06 09:39:25;;;;;;;14.00;8.60;;;;;;;;;;5054306;28;20035;-57
2021/03/06 09:41:50;;;;;;;13.77;8.35;;;;;;;;;;5054482;28;20021;-57
2021/03/06 09:44:17;;;;;;;14.25;8.10;;;;;;;;;;5020047;28;20100;-57
2021/03/06 09:46:43;;;;;;;15.90;8.00;;;;;;;;;;5036238;28;20033;-57
2021/03/06 09:49:10;;;;;;;12.73;6.93;;;;;;;;;;5053972;28;20040;-58
2021/03/06 09:51:55;;;;;;;12.45;7.55;;;;;;;;;;5054239;28;20029;-58
2021/03/06 09:54:22;;;;;;;14.68;6.55;;;;;;;;;;5054236;28;20033;-58
2021/03/06 09:56:52;;;;;;;15.60;7.05;;;;;;;;;;5054181;28;20025;-58
2021/03/06 09:59:18;;;;;;;6.57;4.70;;;;;;;;;;5054114;28;20127;-58
2021/03/06 10:01:44;;;;;;;11.27;5.20;;;;;;;;;;5053989;28;20270;-58
2021/03/06 10:04:13;;;;;;;11.30;6.50;;;;;;;;;;5054171;28;20021;-58
2021/03/06 10:06:40;;;;;;;10.35;5.70;;;;;;;;;;5036074;28;20025;-58
2021/03/06 10:09:07;;;;;;;9.43;5.72;;;;;;;;;;5053826;28;20567;-58
2021/03/06 10:11:40;;;;;;;11.43;6.35;;;;;;;;;;5053807;28;20028;-58
2021/03/06 10:14:06;;;;;;;8.73;5.47;;;;;;;;;;5035928;28;20025;-58
2021/03/06 10:17:01;;;;;;;5.97;4.22;;;;;;;;;;5035917;28;20024;-57
2021/03/06 10:19:28;;;;;;;7.05;4.78;;;;;;;;;;5040213;28;20166;-58
2021/03/06 10:22:01;;;;;;;10.13;5.25;;;;;;;;;;5053623;28;20070;-58
2021/03/06 10:24:26;;;;;;;12.38;5.80;;;;;;;;;;5053678;28;20108;-58
2021/03/06 10:26:56;;;;;;;6.75;5.05;;;;;;;;;;5035696;28;20064;-58
2021/03/06 10:29:22;;;;;;;6.90;4.80;;;;;;;;;;5053568;28;20116;-58
2021/03/06 10:31:55;;;;;;;57.80;31.95;;;;;;;;;;5054457;28;20035;-58
2021/03/06 10:34:23;;;;;;;19.35;10.85;;;;;;;;;;5054133;28;20498;-58
2021/03/06 10:37:08;;;;;;;9.02;5.20;;;;;;;;;;5053356;28;20013;-58
2021/03/06 10:39:34;;;;;;;7.90;5.03;;;;;;;;;;5035801;28;20029;-58
2021/03/06 10:42:01;;;;;;;8.25;5.40;;;;;;;;;;5053569;28;20147;-58
2021/03/06 10:44:41;;;;;;;9.45;4.40;;;;;;;;;;5054220;28;20047;-58
2021/03/06 10:47:08;;;;;;;6.65;3.90;;;;;;;;;;5035718;28;20111;-58
2021/03/06 10:49:38;;;;;;;10.38;6.03;;;;;;;;;;5053217;28;20041;-58
2021/03/06 10:52:05;;;;;;;8.63;5.23;;;;;;;;;;5053279;28;20099;-58
2021/03/06 10:54:45;;;;;;;6.25;3.85;;;;;;;;;;5053179;28;20112;-58
2021/03/06 10:57:11;;;;;;;53.45;32.40;;;;;;;;;;5052597;28;20025;-58
2021/03/06 10:59:37;;;;;;;12.18;9.05;;;;;;;;;;5052253;28;20360;-58
2021/03/06 11:02:03;;;;;;;6.10;4.07;;;;;;;;;;5070418;28;20052;-63
2021/03/06 11:04:30;;;;;;;4.90;3.97;;;;;;;;;;5073394;28;20482;-63
2021/03/06 11:06:57;;;;;;;4.50;3.50;;;;;;;;;;5073564;28;20024;-63
2021/03/06 11:09:25;;;;;;;6.30;3.97;;;;;;;;;;5073352;28;20021;-63
2021/03/06 11:11:52;;;;;;;6.43;3.42;;;;;;;;;;5073656;28;20408;-63
2021/03/06 11:14:21;;;;;;;4.10;3.35;;;;;;;;;;5073365;28;20012;-63
2021/03/06 11:17:11;;;;;;;4.00;3.42;;;;;;;;;;5071054;28;20025;-63
2021/03/06 11:20:18;;;;;;;5.85;3.83;;;;;;;;;;5038946;28;20033;-63
2021/03/06 11:22:46;;;;;;;5.53;3.50;;;;;;;;;;5025329;28;20071;-63
2021/03/06 11:25:13;;;;;;;5.05;3.42;;;;;;;;;;5073067;28;20078;-63
2021/03/06 11:27:43;;;;;;;5.22;3.40;;;;;;;;;;5037384;28;20052;-63
2021/03/06 11:30:10;;;;;;;3.55;2.88;;;;;;;;;;5053148;28;20035;-62
2021/03/06 11:32:35;;;;;;;3.72;2.70;;;;;;;;;;5053643;28;20017;-62
2021/03/06 11:35:02;;;;;;;3.50;2.78;;;;;;;;;;5052879;28;20533;-63
2021/03/06 11:37:28;;;;;;;4.07;2.80;;;;;;;;;;5058194;28;20367;-63
2021/03/06 11:39:53;;;;;;;4.88;3.10;;;;;;;;;;5043132;28;20044;-63
2021/03/06 11:42:23;;;;;;;4.25;2.90;;;;;;;;;;5061598;28;20459;-63
2021/03/06 11:44:50;;;;;;;5.38;2.95;;;;;;;;;;5073169;28;20024;-62
2021/03/06 11:47:15;;;;;;;5.43;2.78;;;;;;;;;;5073439;28;20355;-62
2021/03/06 11:49:41;;;;;;;3.88;2.80;;;;;;;;;;5074425;28;20402;-62
2021/03/06 11:52:07;;;;;;;4.85;3.00;;;;;;;;;;5056494;28;20029;-62
2021/03/06 11:54:40;;;;;;;5.00;3.08;;;;;;;;;;5050403;28;20455;-62
2021/03/06 11:57:22;;;;;;;2.92;2.58;;;;;;;;;;5054849;28;20033;-63
2021/03/06 11:59:53;;;;;;;4.32;2.40;;;;;;;;;;5031388;28;20036;-62
2021/03/06 12:02:21;;;;;;;5.53;2.70;;;;;;;;;;5022307;28;20029;-62
2021/03/06 12:04:54;;;;;;;4.03;2.80;;;;;;;;;;5040017;28;20432;-62
2021/03/06 12:07:23;;;;;;;3.92;2.72;;;;;;;;;;5044231;28;20025;-63
2021/03/06 12:09:51;;;;;;;3.58;2.15;;;;;;;;;;5059080;28;20058;-62
2021/03/06 12:12:17;;;;;;;3.30;2.47;;;;;;;;;;5058364;28;20372;-62
2021/03/06 12:14:43;;;;;;;5.60;2.72;;;;;;;;;;5073201;28;20024;-63
2021/03/06 12:17:08;;;;;;;4.10;2.60;;;;;;;;;;5070472;28;20036;-62
2021/03/06 12:19:34;;;;;;;2.63;2.10;;;;;;;;;;5050264;28;20051;-63
2021/03/06 12:21:59;;;;;;;4.18;2.20;;;;;;;;;;5058435;28;20021;-62
2021/03/06 12:24:25;;;;;;;5.32;2.30;;;;;;;;;;5074847;28;20021;-62
2021/03/06 12:26:51;;;;;;;4.55;2.72;;;;;;;;;;5057837;28;20032;-62
2021/03/06 12:29:55;;;;;;;3.13;2.25;;;;;;;;;;5072143;28;20013;-62
2021/03/06 12:32:23;;;;;;;3.30;2.25;;;;;;;;;;5055544;28;20017;-62
2021/03/06 12:34:50;;;;;;;2.75;2.22;;;;;;;;;;5041288;28;20131;-62
2021/03/06 12:37:16;;;;;;;3.63;2.60;;;;;;;;;;5066618;28;20025;-62
2021/03/06 12:39:41;;;;;;;223.27;69.80;;;;;;;;;;5056921;28;20445;-63
2021/03/06 12:42:09;;;;;;;8.85;5.32;;;;;;;;;;5075750;28;20447;-62
2021/03/06 12:44:34;;;;;;;8.63;4.57;;;;;;;;;;5046939;28;20387;-62
2021/03/06 12:47:00;;;;;;;2.63;2.28;;;;;;;;;;5058732;28;20029;-62
2021/03/06 12:49:26;;;;;;;5.45;3.10;;;;;;;;;;5063441;28;20060;-62
2021/03/06 12:52:02;;;;;;;3.50;2.60;;;;;;;;;;5061468;28;20025;-62
2021/03/06 12:54:32;;;;;;;4.15;2.58;;;;;;;;;;5051004;28;20116;-62
2021/03/06 12:57:01;;;;;;;2.97;2.08;;;;;;;;;;5075896;28;20024;-62
2021/03/06 12:59:28;;;;;;;3.17;2.40;;;;;;;;;;5072281;28;20025;-63
2021/03/06 13:01:55;;;;;;;3.22;2.40;;;;;;;;;;5044808;28;20111;-62
2021/03/06 13:04:22;;;;;;;2.95;2.17;;;;;;;;;;5037459;28;20021;-63
2021/03/06 13:06:47;;;;;;;2.78;2.10;;;;;;;;;;5052056;28;20471;-63
2021/03/06 13:09:17;;;;;;;3.35;2.17;;;;;;;;;;5064767;28;20081;-63
2021/03/06 13:11:42;;;;;;;2.00;1.88;;;;;;;;;;5061183;28;20029;-63
2021/03/06 13:14:09;;;;;;;2.15;2.03;;;;;;;;;;5064901;28;20514;-62
2021/03/06 13:16:35;;;;;;;3.58;2.67;;;;;;;;;;5064354;28;20074;-63
2021/03/06 13:19:01;;;;;;;3.97;2.30;;;;;;;;;;5063216;28;20020;-63
2021/03/06 13:21:26;;;;;;;5.57;3.28;;;;;;;;;;5065266;28;20413;-63
2021/03/06 13:23:52;;;;;;;2.90;2.60;;;;;;;;;;5045286;28;20035;-63
2021/03/06 13:26:20;;;;;;;4.47;3.30;;;;;;;;;;5063323;28;20483;-63
2021/03/06 13:28:45;;;;;;;4.25;2.80;;;;;;;;;;5067684;28;20031;-57
2021/03/06 13:31:11;;;;;;;3.13;2.45;;;;;;;;;;5061836;28;20020;-57
2021/03/06 13:33:37;;;;;;;2.72;2.05;;;;;;;;;;5029672;28;20036;-57
2021/03/06 13:36:02;;;;;;;5.47;2.45;;;;;;;;;;5054590;28;20033;-57
2021/03/06 13:38:28;;;;;;;3.03;2.30;;;;;;;;;;5046991;28;20159;-58
2021/03/06 13:40:53;;;;;;;2.13;1.98;;;;;;;;;;5066145;28;20036;-58
2021/03/06 13:43:19;;;;;;;2.60;2.17;;;;;;;;;;5074016;28;20032;-58
2021/03/06 13:45:44;;;;;;;3.22;2.30;;;;;;;;;;5071111;28;20054;-57
2021/03/06 13:48:10;;;;;;;3.80;2.50;;;;;;;;;;5037904;28;20587;-57
2021/03/06 13:50:35;;;;;;;3.10;2.08;;;;;;;;;;5045680;28;20029;-57
2021/03/06 13:53:02;;;;;;;4.38;2.33;;;;;;;;;;5074745;28;20502;-57
2021/03/06 13:55:28;;;;;;;3.75;2.05;;;;;;;;;;5074453;28;20013;-58
2021/03/06 13:57:54;;;;;;;3.20;2.22;;;;;;;;;;5074408;28;20132;-58
2021/03/06 14:00:19;;;;;;;2.75;2.45;;;;;;;;;;5074226;28;20111;-58
2021/03/06 14:02:45;;;;;;;6.03;3.15;;;;;;;;;;5074442;28;20016;-58
2021/03/06 14:05:11;;;;;;;3.13;2.30;;;;;;;;;;5074127;28;20062;-57
2021/03/06 14:07:39;;;;;;;3.28;2.95;;;;;;;;;;5074069;28;20025;-57
2021/03/06 14:10:05;;;;;;;5.25;3.50;;;;;;;;;;5068944;28;20328;-58
2021/03/06 14:12:31;;;;;;;4.05;2.67;;;;;;;;;;5065137;28;20024;-57
2021/03/06 14:14:56;;;;;;;4.95;2.40;;;;;;;;;;5073868;28;20081;-58
2021/03/06 14:17:22;;;;;;;2.97;2.63;;;;;;;;;;5071868;28;20055;-57
2021/03/06 14:19:48;;;;;;;4.63;2.53;;;;;;;;;;5061920;28;20024;-57
2021/03/06 14:22:13;;;;;;;4.50;3.50;;;;;;;;;;5066042;28;20029;-58
2021/03/06 14:24:39;;;;;;;6.05;4.10;;;;;;;;;;5069465;28;20024;-58
2021/03/06 14:27:04;;;;;;;3.72;2.67;;;;;;;;;;5065494;28;20029;-58
2021/03/06 14:29:30;;;;;;;3.33;2.90;;;;;;;;;;5066486;28;20020;-58
2021/03/06 14:31:55;;;;;;;4.35;3.08;;;;;;;;;;5042553;28;20028;-58
2021/03/06 14:34:21;;;;;;;2.92;2.35;;;;;;;;;;5062336;28;20013;-58